createdAt,value
2022-10-11T00:00:19.051Z,4.80
2022-10-11T00:02:46.160Z,4.80
2022-10-11T00:05:13.261Z,4.45
2022-10-11T00:07:40.511Z,4.72
2022-10-11T00:10:09.448Z,5.05
2022-10-11T00:12:37.005Z,5.00
2022-10-11T00:15:06.947Z,5.07
2022-10-11T00:17:35.405Z,4.78
2022-10-11T00:20:02.404Z,5.45
2022-10-11T00:22:29.479Z,5.10
2022-10-11T00:24:58.661Z,4.60
2022-10-11T00:27:27.486Z,4.40
2022-10-11T00:29:54.716Z,4.80
2022-10-11T00:32:21.867Z,4.90
2022-10-11T00:34:49.023Z,5.45
2022-10-11T00:37:16.139Z,5.38
2022-10-11T00:39:43.252Z,5.50
2022-10-11T00:42:15.671Z,5.50
2022-10-11T00:44:50.927Z,6.10
2022-10-11T00:47:23.081Z,5.72
2022-10-11T00:49:59.186Z,5.20
2022-10-11T00:52:37.462Z,5.68
2022-10-11T00:55:18.481Z,5.43
2022-10-11T00:57:49.532Z,5.05
2022-10-11T01:00:17.191Z,5.30
2022-10-11T01:02:44.454Z,5.70
2022-10-11T01:05:29.165Z,5.10
2022-10-11T01:08:00.306Z,5.55
2022-10-11T01:10:29.432Z,5.07
2022-10-11T01:13:32.931Z,4.80
2022-10-11T01:16:34.048Z,4.95
2022-10-11T01:19:38.621Z,5.22
2022-10-11T01:22:20.834Z,4.75
2022-10-11T01:25:37.650Z,5.13
2022-10-11T01:28:49.085Z,4.80
2022-10-11T01:31:39.660Z,5.03
2022-10-11T01:34:13.929Z,5.03
2022-10-11T01:36:56.802Z,5.47
2022-10-11T01:39:38.055Z,4.90
2022-10-11T01:42:10.876Z,5.30
2022-10-11T01:44:41.422Z,5.00
2022-10-11T01:47:08.545Z,5.25
2022-10-11T01:49:35.632Z,5.20
2022-10-11T01:52:07.130Z,4.82
2022-10-11T01:55:23.176Z,5.65
2022-10-11T01:58:40.771Z,4.80
2022-10-11T02:01:51.113Z,5.30
2022-10-11T02:04:49.447Z,5.43
2022-10-11T02:07:24.515Z,5.00
2022-10-11T02:10:03.937Z,4.43
2022-10-11T02:12:51.654Z,4.82
2022-10-11T02:15:23.352Z,4.68
2022-10-11T02:17:57.332Z,4.55
2022-10-11T02:20:30.839Z,4.72
2022-10-11T02:23:10.693Z,5.00
2022-10-11T02:25:39.607Z,4.85
2022-10-11T02:28:17.335Z,4.75
2022-10-11T02:30:49.846Z,4.45
2022-10-11T02:33:27.364Z,5.45
2022-10-11T02:36:05.099Z,4.75
2022-10-11T02:38:46.002Z,4.57
2022-10-11T02:41:25.060Z,4.38
2022-10-11T02:44:00.512Z,4.45
2022-10-11T02:46:30.579Z,4.88
2022-10-11T02:49:01.945Z,4.78
2022-10-11T02:51:33.584Z,4.40
2022-10-11T02:54:06.783Z,4.13
2022-10-11T02:56:33.825Z,4.85
2022-10-11T02:59:00.860Z,4.80
2022-10-11T03:01:27.966Z,4.57
2022-10-11T03:03:55.200Z,4.75
2022-10-11T03:06:22.213Z,4.00
2022-10-11T03:08:49.362Z,4.68
2022-10-11T03:11:16.346Z,4.65
2022-10-11T03:13:43.307Z,4.50
2022-10-11T03:16:10.716Z,4.22
2022-10-11T03:18:37.825Z,4.43
2022-10-11T03:21:05.011Z,4.55
2022-10-11T03:23:32.321Z,4.43
2022-10-11T03:25:59.267Z,4.70
2022-10-11T03:28:26.402Z,4.53
2022-10-11T03:30:53.613Z,4.63
2022-10-11T03:33:21.740Z,4.18
2022-10-11T03:35:49.752Z,4.50
2022-10-11T03:38:22.505Z,4.40
2022-10-11T03:40:49.851Z,4.15
2022-10-11T03:43:17.706Z,4.20
2022-10-11T03:45:44.825Z,4.03
2022-10-11T03:48:12.872Z,4.78
2022-10-11T03:50:40.005Z,4.28
2022-10-11T03:53:07.707Z,3.97
2022-10-11T03:55:35.142Z,4.10
2022-10-11T03:58:02.263Z,3.70
2022-10-11T04:00:29.291Z,4.07
2022-10-11T04:02:56.407Z,4.20
2022-10-11T04:05:23.411Z,4.53
2022-10-11T04:07:51.159Z,4.47
2022-10-11T04:10:18.378Z,4.53
2022-10-11T04:12:46.123Z,4.95
2022-10-11T04:15:13.452Z,4.55
2022-10-11T04:17:41.230Z,5.05
2022-10-11T04:20:09.490Z,4.22
2022-10-11T04:22:36.680Z,4.40
2022-10-11T04:25:04.751Z,4.38
2022-10-11T04:27:32.775Z,4.25
2022-10-11T04:29:59.928Z,3.50
2022-10-11T04:32:27.835Z,4.28
2022-10-11T04:34:54.895Z,3.88
2022-10-11T04:37:22.134Z,3.67
2022-10-11T04:39:49.108Z,3.97
2022-10-11T04:42:16.446Z,3.88
2022-10-11T04:44:43.512Z,3.92
2022-10-11T04:47:10.626Z,3.72
2022-10-11T04:49:38.740Z,3.80
2022-10-11T04:52:06.001Z,4.20
2022-10-11T04:54:33.181Z,4.00
2022-10-11T04:57:00.431Z,3.83
2022-10-11T04:59:28.270Z,4.10
2022-10-11T05:01:55.350Z,3.95
2022-10-11T05:04:22.625Z,3.90
2022-10-11T05:06:49.659Z,3.80
2022-10-11T05:09:16.744Z,3.78
2022-10-11T05:11:43.816Z,3.92
2022-10-11T05:14:10.861Z,3.72
2022-10-11T05:16:38.074Z,3.67
2022-10-11T05:19:05.035Z,4.10
2022-10-11T05:21:32.457Z,3.90
2022-10-11T05:23:59.574Z,3.65
2022-10-11T05:26:28.321Z,4.22
2022-10-11T05:28:56.000Z,4.22
2022-10-11T05:31:24.838Z,3.83
2022-10-11T05:33:52.144Z,4.80
2022-10-11T05:36:19.520Z,3.83
2022-10-11T05:38:46.871Z,4.70
2022-10-11T05:41:15.493Z,4.20
2022-10-11T05:43:47.079Z,4.40
2022-10-11T05:46:14.429Z,4.28
2022-10-11T05:48:41.685Z,4.10
2022-10-11T05:51:10.466Z,4.63
2022-10-11T05:53:39.356Z,3.72
2022-10-11T05:56:19.967Z,4.07
2022-10-11T05:58:47.391Z,3.80
2022-10-11T06:01:23.669Z,4.00
2022-10-11T06:03:51.511Z,4.47
2022-10-11T06:06:19.613Z,4.97
2022-10-11T06:08:48.845Z,4.70
2022-10-11T06:11:23.451Z,5.32
2022-10-11T06:16:17.423Z,4.78
2022-10-11T06:18:44.451Z,4.93
2022-10-11T06:21:13.100Z,5.28
2022-10-11T06:23:40.063Z,4.57
2022-10-11T06:26:10.359Z,4.90
2022-10-11T06:28:38.170Z,4.78
2022-10-11T06:31:06.146Z,5.00
2022-10-11T06:33:34.572Z,5.97
2022-10-11T06:36:07.659Z,5.22
2022-10-11T06:38:35.160Z,5.70
2022-10-11T06:41:17.259Z,5.82
2022-10-11T06:43:45.224Z,5.30
2022-10-11T06:46:12.977Z,4.82
2022-10-11T06:48:43.511Z,4.50
2022-10-11T06:51:15.104Z,5.00
2022-10-11T06:53:43.057Z,4.97
2022-10-11T06:56:12.896Z,5.03
2022-10-11T06:58:40.393Z,5.07
2022-10-11T07:01:12.381Z,4.88
2022-10-11T07:03:40.519Z,5.00
2022-10-11T07:06:11.912Z,5.05
2022-10-11T07:08:39.886Z,6.00
2022-10-11T07:11:17.220Z,5.90
2022-10-11T07:13:50.911Z,6.20
2022-10-11T07:16:18.496Z,5.93
2022-10-11T07:18:54.785Z,7.78
2022-10-11T07:21:24.762Z,8.80
2022-10-11T07:23:51.936Z,8.82
2022-10-11T07:26:38.618Z,7.18
2022-10-11T07:29:09.403Z,7.13
2022-10-11T07:31:40.300Z,7.78
2022-10-11T07:34:08.280Z,8.02
2022-10-11T07:36:36.059Z,7.35
2022-10-11T07:39:06.984Z,7.10
2022-10-11T07:41:34.150Z,7.95
2022-10-11T07:44:01.167Z,6.88
2022-10-11T07:46:28.139Z,7.55
2022-10-11T07:48:55.229Z,7.07
2022-10-11T07:51:24.546Z,6.85
2022-10-11T07:53:55.902Z,6.50
2022-10-11T07:56:27.646Z,5.57
2022-10-11T07:58:58.895Z,6.72
2022-10-11T08:01:27.831Z,6.00
2022-10-11T08:03:57.183Z,5.43
2022-10-11T08:06:29.317Z,4.97
2022-10-11T08:08:57.907Z,5.05
2022-10-11T08:11:29.989Z,4.68
2022-10-11T08:14:08.799Z,5.35
2022-10-11T08:16:37.405Z,5.43
2022-10-11T08:19:05.872Z,5.22
2022-10-11T08:21:33.401Z,5.65
2022-10-11T08:24:04.282Z,5.13
2022-10-11T08:26:33.352Z,5.05
2022-10-11T08:31:34.812Z,5.22
2022-10-11T08:34:02.726Z,5.55
2022-10-11T08:36:29.914Z,6.18
2022-10-11T08:41:54.341Z,4.50
2022-10-11T08:45:10.595Z,4.07
2022-10-11T08:47:44.172Z,4.57
2022-10-11T08:50:23.713Z,4.72
2022-10-11T08:53:06.060Z,4.25
2022-10-11T08:55:48.054Z,4.70
2022-10-11T08:58:37.418Z,5.05
2022-10-11T09:01:18.783Z,4.78
2022-10-11T09:03:48.543Z,4.63
2022-10-11T09:06:50.254Z,5.38
2022-10-11T09:10:01.919Z,5.90
2022-10-11T09:13:05.939Z,5.32
2022-10-11T09:15:48.934Z,4.95
2022-10-11T09:18:31.510Z,4.50
2022-10-11T09:21:40.070Z,4.25
2022-10-11T09:24:34.562Z,4.43
2022-10-11T09:27:19.132Z,3.90
2022-10-11T09:30:06.187Z,3.58
2022-10-11T09:32:42.497Z,2.53
2022-10-11T09:35:22.372Z,3.13
2022-10-11T09:38:26.316Z,4.10
2022-10-11T09:41:25.363Z,3.53
2022-10-11T09:43:54.380Z,3.22
2022-10-11T09:46:40.055Z,3.67
2022-10-11T09:49:15.869Z,3.35
2022-10-11T09:51:51.643Z,3.40
2022-10-11T09:54:22.264Z,3.13
2022-10-11T09:56:49.343Z,2.78
2022-10-11T09:59:30.069Z,3.45
2022-10-11T10:02:27.423Z,3.85
2022-10-11T10:05:10.791Z,3.40
2022-10-11T10:07:41.166Z,3.92
2022-10-11T10:11:01.991Z,2.70
2022-10-11T10:13:56.068Z,2.80
2022-10-11T10:16:33.973Z,3.00
2022-10-11T10:19:05.075Z,2.30
2022-10-11T10:21:37.557Z,2.55
2022-10-11T10:24:17.661Z,2.95
2022-10-11T10:27:18.447Z,3.00
2022-10-11T10:30:00.869Z,2.30
2022-10-11T10:32:43.875Z,2.75
2022-10-11T10:35:48.761Z,2.17
2022-10-11T10:38:32.642Z,1.83
2022-10-11T10:41:09.117Z,2.60
2022-10-11T10:43:42.888Z,2.13
2022-10-11T10:46:16.016Z,2.33
2022-10-11T10:49:28.765Z,2.08
2022-10-11T10:52:16.044Z,2.20
2022-10-11T10:54:55.291Z,1.95
2022-10-11T10:58:18.611Z,2.17
2022-10-11T11:00:56.048Z,2.33
2022-10-11T11:03:47.885Z,2.05
2022-10-11T11:06:51.324Z,2.00
2022-10-11T11:09:55.000Z,2.60
2022-10-11T11:12:31.580Z,2.30
2022-10-11T11:15:31.245Z,2.53
2022-10-11T11:18:29.067Z,3.03
2022-10-11T11:22:02.015Z,2.72
2022-10-11T11:24:43.939Z,2.50
2022-10-11T11:27:39.980Z,2.08
2022-10-11T11:30:41.251Z,2.33
2022-10-11T11:33:49.063Z,2.40
2022-10-11T11:36:34.204Z,1.85
2022-10-11T11:39:05.063Z,1.63
2022-10-11T11:41:47.707Z,3.97
2022-10-11T11:44:42.676Z,2.67
2022-10-11T11:47:32.447Z,3.60
2022-10-11T11:50:25.268Z,2.75
2022-10-11T11:53:21.147Z,2.58
2022-10-11T11:56:04.296Z,2.03
2022-10-11T11:58:45.196Z,3.60
2022-10-11T12:01:31.487Z,1.98
2022-10-11T12:04:12.714Z,2.67
2022-10-11T12:06:52.383Z,2.30
2022-10-11T12:09:25.792Z,2.70
2022-10-11T12:11:58.603Z,2.42
2022-10-11T12:14:34.168Z,1.83
2022-10-11T12:17:18.755Z,2.38
2022-10-11T12:22:33.404Z,1.92
2022-10-11T12:25:18.361Z,2.08
2022-10-11T12:27:52.942Z,1.50
2022-10-11T12:33:25.824Z,1.85
2022-10-11T12:35:53.743Z,2.88
2022-10-11T12:38:35.564Z,2.00
2022-10-11T12:41:16.746Z,1.90
2022-10-11T12:43:49.343Z,1.70
2022-10-11T12:46:28.478Z,1.90
2022-10-11T12:49:31.185Z,1.98
2022-10-11T12:52:34.082Z,2.08
2022-10-11T12:56:01.963Z,2.05
2022-10-11T12:58:41.469Z,1.98
2022-10-11T13:01:22.098Z,2.17
2022-10-11T13:04:00.722Z,2.28
2022-10-11T13:06:48.764Z,2.08
2022-10-11T13:09:29.727Z,1.83
2022-10-11T13:12:20.738Z,1.70
2022-10-11T13:15:05.298Z,1.70
2022-10-11T13:17:38.819Z,1.55
2022-10-11T13:20:20.357Z,1.77
2022-10-11T13:22:55.140Z,1.60
2022-10-11T13:25:27.876Z,2.00
2022-10-11T13:27:59.458Z,1.60
2022-10-11T13:30:31.639Z,1.40
2022-10-11T13:33:13.177Z,1.90
2022-10-11T13:35:41.299Z,1.73
2022-10-11T13:38:23.874Z,1.42
2022-10-11T13:40:51.820Z,1.23
2022-10-11T13:43:37.946Z,1.42
2022-10-11T13:46:05.839Z,1.52
2022-10-11T13:48:40.163Z,1.50
2022-10-11T13:54:13.425Z,1.52
2022-10-11T13:56:52.574Z,1.80
2022-10-11T13:59:23.888Z,1.67
2022-10-11T14:02:00.607Z,1.65
2022-10-11T14:04:29.930Z,1.85
2022-10-11T14:07:02.469Z,2.35
2022-10-11T14:09:36.574Z,2.00
2022-10-11T14:12:39.632Z,1.42
2022-10-11T14:15:34.578Z,2.00
2022-10-11T14:18:33.577Z,1.50
2022-10-11T14:21:19.311Z,1.38
2022-10-11T14:23:50.719Z,1.73
2022-10-11T14:26:19.355Z,2.00
2022-10-11T14:28:54.160Z,1.40
2022-10-11T14:31:22.919Z,2.15
2022-10-11T14:33:50.161Z,1.80
2022-10-11T14:36:17.303Z,2.10
2022-10-11T14:38:46.311Z,1.83
2022-10-11T14:41:13.370Z,1.65
2022-10-11T14:43:40.441Z,2.03
2022-10-11T14:46:22.304Z,2.25
2022-10-11T14:48:55.600Z,2.00
2022-10-11T14:51:32.205Z,2.30
2022-10-11T14:53:59.480Z,1.70
2022-10-11T14:56:26.587Z,2.15
2022-10-11T14:58:53.562Z,2.63
2022-10-11T15:01:20.860Z,2.92
2022-10-11T15:03:48.087Z,2.67
2022-10-11T15:06:30.508Z,2.05
2022-10-11T15:08:58.644Z,2.10
2022-10-11T15:11:26.431Z,2.22
2022-10-11T15:13:53.478Z,1.90
2022-10-11T15:16:22.550Z,2.05
2022-10-11T15:18:52.982Z,2.00
2022-10-11T15:21:25.508Z,1.88
2022-10-11T15:23:54.623Z,1.70
2022-10-11T15:26:25.941Z,1.98
2022-10-11T15:28:56.124Z,2.25
2022-10-11T15:31:23.767Z,1.80
2022-10-11T15:33:51.040Z,1.95
2022-10-11T15:36:22.645Z,1.40
2022-10-11T15:38:49.798Z,1.70
2022-10-11T15:41:20.045Z,3.67
2022-10-11T15:43:48.930Z,3.50
2022-10-11T15:46:19.921Z,2.97
2022-10-11T15:48:49.256Z,2.75
2022-10-11T15:51:17.174Z,3.22
2022-10-11T15:53:44.883Z,5.10
2022-10-11T15:56:18.686Z,2.35
2022-10-11T15:58:46.210Z,2.05
2022-10-11T16:01:19.933Z,2.05
2022-10-11T16:03:49.467Z,1.83
2022-10-11T16:06:19.173Z,1.77
2022-10-11T16:08:47.400Z,1.75
2022-10-11T16:11:14.934Z,2.20
2022-10-11T16:13:42.043Z,1.95
2022-10-11T16:16:10.327Z,1.60
2022-10-11T16:18:38.830Z,1.65
2022-10-11T16:21:11.313Z,1.95
2022-10-11T16:23:39.981Z,2.38
2022-10-11T16:26:13.693Z,2.00
2022-10-11T16:28:41.957Z,1.73
2022-10-11T16:31:14.272Z,1.90
2022-10-11T16:33:47.746Z,2.10
2022-10-11T16:36:40.165Z,4.53
2022-10-11T16:39:14.715Z,2.72
2022-10-11T16:41:42.716Z,2.60
2022-10-11T16:44:19.147Z,3.67
2022-10-11T16:46:48.535Z,4.97
2022-10-11T16:49:19.890Z,3.65
2022-10-11T16:51:47.236Z,5.57
2022-10-11T16:54:22.955Z,3.50
2022-10-11T16:56:51.611Z,2.40
2022-10-11T16:59:20.238Z,2.92
2022-10-11T17:01:47.866Z,2.75
2022-10-11T17:04:15.306Z,2.13
2022-10-11T17:06:43.968Z,2.03
2022-10-11T17:09:11.859Z,2.10
2022-10-11T17:11:39.334Z,2.30
2022-10-11T17:14:07.206Z,2.10
2022-10-11T17:16:36.280Z,2.30
2022-10-11T17:19:04.092Z,1.85
2022-10-11T17:21:31.755Z,2.10
2022-10-11T17:24:00.783Z,1.88
2022-10-11T17:26:27.959Z,2.00
2022-10-11T17:29:00.527Z,2.95
2022-10-11T17:31:29.992Z,2.90
2022-10-11T17:34:01.222Z,2.63
2022-10-11T17:36:35.938Z,2.30
2022-10-11T17:39:10.060Z,2.13
2022-10-11T17:41:37.430Z,1.95
2022-10-11T17:44:05.404Z,1.83
2022-10-11T17:46:32.841Z,2.20
2022-10-11T17:49:04.730Z,1.92
2022-10-11T17:51:34.483Z,2.42
2022-10-11T17:54:02.187Z,2.25
2022-10-11T17:56:35.076Z,2.25
2022-10-11T18:01:30.917Z,2.33
2022-10-11T18:04:03.109Z,2.58
2022-10-11T18:06:39.561Z,2.65
2022-10-11T18:09:07.411Z,2.45
2022-10-11T18:11:34.438Z,2.50
2022-10-11T18:14:01.590Z,2.65
2022-10-11T18:16:31.527Z,2.85
2022-10-11T18:18:59.109Z,2.17
2022-10-11T18:21:33.399Z,2.40
2022-10-11T18:24:12.114Z,2.03
2022-10-11T18:26:46.513Z,2.45
2022-10-11T18:29:13.891Z,3.90
2022-10-11T18:31:41.390Z,3.50
2022-10-11T18:34:10.881Z,3.17
2022-10-11T18:36:39.896Z,3.22
2022-10-11T18:39:11.354Z,3.65
2022-10-11T18:41:42.060Z,2.95
2022-10-11T18:44:13.968Z,2.80
2022-10-11T18:46:42.607Z,2.88
2022-10-11T18:49:10.204Z,2.50
2022-10-11T18:51:42.286Z,2.38
2022-10-11T18:54:15.227Z,2.35
2022-10-11T18:56:45.719Z,2.67
2022-10-11T18:59:13.143Z,2.42
2022-10-11T19:01:44.788Z,2.85
2022-10-11T19:04:16.073Z,3.00
2022-10-11T19:06:49.627Z,2.13
2022-10-11T19:09:25.693Z,3.10
2022-10-11T19:11:56.145Z,2.47
2022-10-11T19:14:28.287Z,2.92
2022-10-11T19:16:56.177Z,2.75
2022-10-11T19:19:27.606Z,2.63
2022-10-11T19:21:55.178Z,2.72
2022-10-11T19:24:27.307Z,2.70
2022-10-11T19:26:58.521Z,6.63
2022-10-11T19:29:28.846Z,5.57
2022-10-11T19:32:00.719Z,5.30
2022-10-11T19:34:28.498Z,4.15
2022-10-11T19:36:58.904Z,3.95
2022-10-11T19:39:26.203Z,3.38
2022-10-11T19:41:53.801Z,3.70
2022-10-11T19:44:20.945Z,3.88
2022-10-11T19:46:52.438Z,5.25
2022-10-11T19:49:25.853Z,3.88
2022-10-11T19:51:55.084Z,4.05
2022-10-11T19:54:22.883Z,3.97
2022-10-11T19:56:50.027Z,3.47
2022-10-11T19:59:17.401Z,3.50
2022-10-11T20:01:49.376Z,4.07
2022-10-11T20:04:50.953Z,4.25
2022-10-11T20:07:08.682Z,3.70
2022-10-11T20:09:36.810Z,3.25
2022-10-11T20:12:03.994Z,3.35
2022-10-11T20:14:30.990Z,3.30
2022-10-11T20:16:58.144Z,2.47
2022-10-11T20:19:30.671Z,3.10
2022-10-11T20:22:00.828Z,3.10
2022-10-11T20:24:32.693Z,3.17
2022-10-11T20:27:04.072Z,2.75
2022-10-11T20:29:33.282Z,3.40
2022-10-11T20:32:00.530Z,3.47
2022-10-11T20:34:27.885Z,3.30
2022-10-11T20:36:54.883Z,2.67
2022-10-11T20:39:22.029Z,3.40
2022-10-11T20:41:49.086Z,3.40
2022-10-11T20:44:16.712Z,2.80
2022-10-11T20:46:43.698Z,3.33
2022-10-11T20:49:12.487Z,2.78
2022-10-11T20:51:42.047Z,3.50
2022-10-11T20:54:10.423Z,3.08
2022-10-11T20:56:38.313Z,4.65
2022-10-11T20:59:06.261Z,3.75
2022-10-11T21:01:39.820Z,4.80
2022-10-11T21:04:14.179Z,5.67
2022-10-11T21:06:41.150Z,4.53
2022-10-11T21:09:10.169Z,4.18
2022-10-11T21:11:38.454Z,3.88
2022-10-11T21:14:06.393Z,4.50
2022-10-11T21:16:34.158Z,3.60
2022-10-11T21:19:02.558Z,3.85
2022-10-11T21:21:31.130Z,3.63
2022-10-11T21:24:01.754Z,4.20
2022-10-11T21:26:30.983Z,3.15
2022-10-11T21:29:01.167Z,3.97
2022-10-11T21:31:33.523Z,3.40
2022-10-11T21:34:02.624Z,4.55
2022-10-11T21:36:30.995Z,3.95
2022-10-11T21:38:58.020Z,4.50
2022-10-11T21:41:31.312Z,4.15
2022-10-11T21:43:58.528Z,4.82
2022-10-11T21:49:19.746Z,4.82
2022-10-11T21:51:46.756Z,4.60
2022-10-11T21:54:14.318Z,5.10
2022-10-11T21:56:41.543Z,4.93
2022-10-11T21:59:12.170Z,4.60
2022-10-11T22:01:41.746Z,5.07
2022-10-11T22:04:10.859Z,5.07
2022-10-11T22:06:38.762Z,4.40
2022-10-11T22:09:07.685Z,5.25
2022-10-11T22:11:35.683Z,4.85
2022-10-11T22:14:03.337Z,4.10
2022-10-11T22:16:30.493Z,5.22
2022-10-11T22:18:57.584Z,4.80
2022-10-11T22:21:24.605Z,5.25
2022-10-11T22:23:54.145Z,4.40
2022-10-11T22:26:26.344Z,5.30
2022-10-11T22:28:53.468Z,5.13
2022-10-11T22:31:22.172Z,4.65
2022-10-11T22:33:54.580Z,4.70
2022-10-11T22:36:24.255Z,5.10
2022-10-11T22:38:53.228Z,4.65
2022-10-11T22:41:20.904Z,5.10
2022-10-11T22:43:48.228Z,4.82
2022-10-11T22:46:15.601Z,5.43
2022-10-11T22:48:42.803Z,5.13
2022-10-11T22:51:09.803Z,5.53
2022-10-11T22:53:38.628Z,4.53
2022-10-11T22:56:05.915Z,5.05
2022-10-11T22:58:32.877Z,4.88
2022-10-11T23:01:11.428Z,4.90
2022-10-11T23:03:38.566Z,4.88
2022-10-11T23:06:06.286Z,4.50
2022-10-11T23:08:33.402Z,5.00
2022-10-11T23:11:06.375Z,5.45
2022-10-11T23:13:35.004Z,5.80
2022-10-11T23:16:11.981Z,5.15
2022-10-11T23:18:39.438Z,5.70
2022-10-11T23:21:07.742Z,5.15
2022-10-11T23:23:35.174Z,5.22
2022-10-11T23:26:09.003Z,5.70
2022-10-11T23:28:37.174Z,4.97
2022-10-11T23:31:13.513Z,5.43
2022-10-11T23:33:41.084Z,5.07
2022-10-11T23:36:24.564Z,4.80
2022-10-11T23:38:59.065Z,5.10
2022-10-11T23:43:56.097Z,4.78
2022-10-11T23:46:24.823Z,4.57
2022-10-11T23:48:51.812Z,5.18
2022-10-11T23:51:18.853Z,4.45
2022-10-11T23:53:45.879Z,4.40
2022-10-11T23:56:13.196Z,4.40
2022-10-11T23:58:40.364Z,4.18
